sensor_id;sensor_type;location;lat;lon;timestamp;temperature;humidity
45066;DHT22;30830;53.704;10.004;2023-05-18T00:00:43;6.80;99.90
45066;DHT22;30830;53.704;10.004;2023-05-18T00:03:09;6.80;99.90
45066;DHT22;30830;53.704;10.004;2023-05-18T00:05:35;6.80;99.90
45066;DHT22;30830;53.704;10.004;2023-05-18T00:08:01;6.80;99.90
45066;DHT22;30830;53.704;10.004;2023-05-18T00:10:27;6.80;99.90
45066;DHT22;30830;53.704;10.004;2023-05-18T00:12:53;6.80;99.90
45066;DHT22;30830;53.704;10.004;2023-05-18T00:15:18;6.80;99.90
45066;DHT22;30830;53.704;10.004;2023-05-18T00:17:44;6.80;99.90
45066;DHT22;30830;53.704;10.004;2023-05-18T00:20:10;6.80;99.90
45066;DHT22;30830;53.704;10.004;2023-05-18T00:22:36;6.70;99.90
45066;DHT22;30830;53.704;10.004;2023-05-18T00:25:03;6.80;99.90
45066;DHT22;30830;53.704;10.004;2023-05-18T00:27:29;6.70;99.90
45066;DHT22;30830;53.704;10.004;2023-05-18T00:29:55;6.70;99.90
45066;DHT22;30830;53.704;10.004;2023-05-18T00:32:21;6.70;99.90
45066;DHT22;30830;53.704;10.004;2023-05-18T00:34:46;6.70;99.90
45066;DHT22;30830;53.704;10.004;2023-05-18T00:37:12;6.70;99.90
45066;DHT22;30830;53.704;10.004;2023-05-18T00:39:37;6.70;99.90
45066;DHT22;30830;53.704;10.004;2023-05-18T00:42:03;6.70;99.90
45066;DHT22;30830;53.704;10.004;2023-05-18T00:44:29;6.60;99.90
45066;DHT22;30830;53.704;10.004;2023-05-18T00:46:55;6.60;99.90
45066;DHT22;30830;53.704;10.004;2023-05-18T00:49:20;6.60;99.90
45066;DHT22;30830;53.704;10.004;2023-05-18T00:51:46;6.50;99.90
45066;DHT22;30830;53.704;10.004;2023-05-18T00:54:13;6.50;99.90
45066;DHT22;30830;53.704;10.004;2023-05-18T00:56:39;6.50;99.90
45066;DHT22;30830;53.704;10.004;2023-05-18T00:59:11;6.50;99.90
45066;DHT22;30830;53.704;10.004;2023-05-18T01:01:36;6.50;99.90
45066;DHT22;30830;53.704;10.004;2023-05-18T01:04:07;6.50;99.90
45066;DHT22;30830;53.704;10.004;2023-05-18T01:06:34;6.40;99.90
45066;DHT22;30830;53.704;10.004;2023-05-18T01:09:05;6.40;99.90
45066;DHT22;30830;53.704;10.004;2023-05-18T01:28:24;6.20;99.90
45066;DHT22;30830;53.704;10.004;2023-05-18T01:30:52;6.10;99.90
45066;DHT22;30830;53.704;10.004;2023-05-18T01:33:18;6.00;99.90
45066;DHT22;30830;53.704;10.004;2023-05-18T01:35:43;6.00;99.90
45066;DHT22;30830;53.704;10.004;2023-05-18T01:38:14;6.00;99.90
45066;DHT22;30830;53.704;10.004;2023-05-18T01:43:54;5.90;99.90
45066;DHT22;30830;53.704;10.004;2023-05-18T01:46:22;5.90;99.90
45066;DHT22;30830;53.704;10.004;2023-05-18T01:48:55;5.90;99.90
45066;DHT22;30830;53.704;10.004;2023-05-18T01:51:27;5.80;99.90
45066;DHT22;30830;53.704;10.004;2023-05-18T01:54:01;5.80;99.90
45066;DHT22;30830;53.704;10.004;2023-05-18T01:56:29;5.80;99.90
45066;DHT22;30830;53.704;10.004;2023-05-18T01:58:57;5.70;99.90
45066;DHT22;30830;53.704;10.004;2023-05-18T02:01:23;5.70;99.90
45066;DHT22;30830;53.704;10.004;2023-05-18T02:03:50;5.70;99.90
45066;DHT22;30830;53.704;10.004;2023-05-18T02:06:15;5.80;99.90
45066;DHT22;30830;53.704;10.004;2023-05-18T02:08:41;5.70;99.90
45066;DHT22;30830;53.704;10.004;2023-05-18T02:11:07;5.80;99.90
45066;DHT22;30830;53.704;10.004;2023-05-18T02:13:33;5.80;99.90
45066;DHT22;30830;53.704;10.004;2023-05-18T02:15:58;5.80;99.90
45066;DHT22;30830;53.704;10.004;2023-05-18T02:18:24;5.80;99.90
45066;DHT22;30830;53.704;10.004;2023-05-18T02:21:01;5.80;99.90
45066;DHT22;30830;53.704;10.004;2023-05-18T02:23:27;5.80;99.90
45066;DHT22;30830;53.704;10.004;2023-05-18T02:25:52;5.80;99.90
45066;DHT22;30830;53.704;10.004;2023-05-18T02:28:22;5.80;99.90
45066;DHT22;30830;53.704;10.004;2023-05-18T02:30:47;5.80;99.90
45066;DHT22;30830;53.704;10.004;2023-05-18T02:33:13;5.80;99.90
45066;DHT22;30830;53.704;10.004;2023-05-18T02:35:39;5.80;99.90
45066;DHT22;30830;53.704;10.004;2023-05-18T02:38:05;5.80;99.90
45066;DHT22;30830;53.704;10.004;2023-05-18T02:40:31;5.80;99.90
45066;DHT22;30830;53.704;10.004;2023-05-18T02:42:57;5.80;99.90
45066;DHT22;30830;53.704;10.004;2023-05-18T02:45:22;5.80;99.90
45066;DHT22;30830;53.704;10.004;2023-05-18T02:47:48;5.90;99.90
45066;DHT22;30830;53.704;10.004;2023-05-18T02:50:13;5.80;99.90
45066;DHT22;30830;53.704;10.004;2023-05-18T02:52:39;5.80;99.90
45066;DHT22;30830;53.704;10.004;2023-05-18T02:55:06;5.80;99.90
45066;DHT22;30830;53.704;10.004;2023-05-18T02:57:31;5.90;99.90
45066;DHT22;30830;53.704;10.004;2023-05-18T02:59:58;5.90;99.90
45066;DHT22;30830;53.704;10.004;2023-05-18T03:02:23;5.90;99.90
45066;DHT22;30830;53.704;10.004;2023-05-18T03:04:49;5.90;99.90
45066;DHT22;30830;53.704;10.004;2023-05-18T03:07:22;5.90;99.90
45066;DHT22;30830;53.704;10.004;2023-05-18T03:09:48;5.90;99.90
45066;DHT22;30830;53.704;10.004;2023-05-18T03:12:13;5.90;99.90
45066;DHT22;30830;53.704;10.004;2023-05-18T03:14:39;5.90;99.90
45066;DHT22;30830;53.704;10.004;2023-05-18T03:17:05;5.90;99.90
45066;DHT22;30830;53.704;10.004;2023-05-18T03:19:31;5.90;99.90
45066;DHT22;30830;53.704;10.004;2023-05-18T03:21:57;5.90;99.90
45066;DHT22;30830;53.704;10.004;2023-05-18T03:24:22;6.00;99.90
45066;DHT22;30830;53.704;10.004;2023-05-18T03:26:51;6.00;99.90
45066;DHT22;30830;53.704;10.004;2023-05-18T03:29:19;6.00;99.90
45066;DHT22;30830;53.704;10.004;2023-05-18T03:31:44;6.00;99.90
45066;DHT22;30830;53.704;10.004;2023-05-18T03:34:10;6.00;99.90
45066;DHT22;30830;53.704;10.004;2023-05-18T03:36:35;6.00;99.90
45066;DHT22;30830;53.704;10.004;2023-05-18T03:39:05;6.00;99.90
45066;DHT22;30830;53.704;10.004;2023-05-18T03:41:31;6.10;99.90
45066;DHT22;30830;53.704;10.004;2023-05-18T03:43:57;6.10;99.90
45066;DHT22;30830;53.704;10.004;2023-05-18T03:46:23;6.10;99.90
45066;DHT22;30830;53.704;10.004;2023-05-18T03:48:48;6.10;99.90
45066;DHT22;30830;53.704;10.004;2023-05-18T03:51:14;6.10;99.90
45066;DHT22;30830;53.704;10.004;2023-05-18T03:53:40;6.20;99.90
45066;DHT22;30830;53.704;10.004;2023-05-18T03:56:07;6.20;99.90
45066;DHT22;30830;53.704;10.004;2023-05-18T03:58:32;6.20;99.90
45066;DHT22;30830;53.704;10.004;2023-05-18T04:00:59;6.20;99.90
45066;DHT22;30830;53.704;10.004;2023-05-18T04:03:25;6.30;99.90
45066;DHT22;30830;53.704;10.004;2023-05-18T04:05:51;6.30;99.90
45066;DHT22;30830;53.704;10.004;2023-05-18T04:08:18;6.30;99.90
45066;DHT22;30830;53.704;10.004;2023-05-18T04:10:44;6.30;99.90
45066;DHT22;30830;53.704;10.004;2023-05-18T04:13:10;6.30;99.90
45066;DHT22;30830;53.704;10.004;2023-05-18T04:15:36;6.40;99.90
45066;DHT22;30830;53.704;10.004;2023-05-18T04:18:05;6.40;99.90
45066;DHT22;30830;53.704;10.004;2023-05-18T04:20:32;6.40;99.90
45066;DHT22;30830;53.704;10.004;2023-05-18T04:22:58;6.40;99.90
45066;DHT22;30830;53.704;10.004;2023-05-18T04:25:23;6.50;99.90
45066;DHT22;30830;53.704;10.004;2023-05-18T04:27:52;6.50;99.90
45066;DHT22;30830;53.704;10.004;2023-05-18T04:30:19;6.50;99.90
45066;DHT22;30830;53.704;10.004;2023-05-18T04:32:46;6.60;99.90
45066;DHT22;30830;53.704;10.004;2023-05-18T04:35:12;6.50;99.90
45066;DHT22;30830;53.704;10.004;2023-05-18T04:37:38;6.60;99.90
45066;DHT22;30830;53.704;10.004;2023-05-18T04:40:08;6.60;99.90
45066;DHT22;30830;53.704;10.004;2023-05-18T04:42:39;6.60;99.90
45066;DHT22;30830;53.704;10.004;2023-05-18T04:45:10;6.70;99.90
45066;DHT22;30830;53.704;10.004;2023-05-18T04:47:37;6.70;99.90
45066;DHT22;30830;53.704;10.004;2023-05-18T04:50:03;6.70;99.90
45066;DHT22;30830;53.704;10.004;2023-05-18T04:52:30;6.70;99.90
45066;DHT22;30830;53.704;10.004;2023-05-18T04:54:55;6.80;99.90
45066;DHT22;30830;53.704;10.004;2023-05-18T04:57:21;6.90;99.90
45066;DHT22;30830;53.704;10.004;2023-05-18T04:59:46;6.90;99.90
45066;DHT22;30830;53.704;10.004;2023-05-18T05:02:12;6.90;99.90
45066;DHT22;30830;53.704;10.004;2023-05-18T05:04:38;6.90;99.90
45066;DHT22;30830;53.704;10.004;2023-05-18T05:07:04;6.90;99.90
45066;DHT22;30830;53.704;10.004;2023-05-18T05:09:29;7.00;99.90
45066;DHT22;30830;53.704;10.004;2023-05-18T05:11:55;7.10;99.90
45066;DHT22;30830;53.704;10.004;2023-05-18T05:14:20;7.10;99.90
45066;DHT22;30830;53.704;10.004;2023-05-18T05:16:46;7.20;99.90
45066;DHT22;30830;53.704;10.004;2023-05-18T05:19:11;7.20;99.90
45066;DHT22;30830;53.704;10.004;2023-05-18T05:21:37;7.20;99.90
45066;DHT22;30830;53.704;10.004;2023-05-18T05:24:03;7.30;99.90
45066;DHT22;30830;53.704;10.004;2023-05-18T05:26:30;7.30;99.90
45066;DHT22;30830;53.704;10.004;2023-05-18T05:28:55;7.20;99.90
45066;DHT22;30830;53.704;10.004;2023-05-18T05:31:21;7.20;99.90
45066;DHT22;30830;53.704;10.004;2023-05-18T05:33:46;7.30;99.90
45066;DHT22;30830;53.704;10.004;2023-05-18T05:36:12;7.30;99.90
45066;DHT22;30830;53.704;10.004;2023-05-18T05:38:37;7.30;99.90
45066;DHT22;30830;53.704;10.004;2023-05-18T05:41:03;7.40;99.90
45066;DHT22;30830;53.704;10.004;2023-05-18T05:43:29;7.40;99.90
45066;DHT22;30830;53.704;10.004;2023-05-18T05:45:54;7.40;99.90
45066;DHT22;30830;53.704;10.004;2023-05-18T05:48:20;7.30;99.90
45066;DHT22;30830;53.704;10.004;2023-05-18T05:50:45;7.40;99.90
45066;DHT22;30830;53.704;10.004;2023-05-18T05:53:11;7.60;99.90
45066;DHT22;30830;53.704;10.004;2023-05-18T05:55:37;7.60;99.90
45066;DHT22;30830;53.704;10.004;2023-05-18T05:58:06;7.60;99.90
45066;DHT22;30830;53.704;10.004;2023-05-18T06:00:31;7.80;99.90
45066;DHT22;30830;53.704;10.004;2023-05-18T06:02:57;7.90;99.90
45066;DHT22;30830;53.704;10.004;2023-05-18T06:05:23;7.90;99.90
45066;DHT22;30830;53.704;10.004;2023-05-18T06:07:49;7.90;99.90
45066;DHT22;30830;53.704;10.004;2023-05-18T06:10:14;7.90;99.90
45066;DHT22;30830;53.704;10.004;2023-05-18T06:12:40;7.90;99.90
45066;DHT22;30830;53.704;10.004;2023-05-18T06:15:06;8.00;99.90
45066;DHT22;30830;53.704;10.004;2023-05-18T06:17:32;8.00;99.90
45066;DHT22;30830;53.704;10.004;2023-05-18T06:19:57;8.00;99.90
45066;DHT22;30830;53.704;10.004;2023-05-18T06:22:23;8.10;99.90
45066;DHT22;30830;53.704;10.004;2023-05-18T06:24:49;8.00;99.90
45066;DHT22;30830;53.704;10.004;2023-05-18T06:27:15;8.00;99.90
45066;DHT22;30830;53.704;10.004;2023-05-18T06:29:41;8.10;99.90
45066;DHT22;30830;53.704;10.004;2023-05-18T06:32:07;8.10;99.90
45066;DHT22;30830;53.704;10.004;2023-05-18T06:34:32;8.20;99.90
45066;DHT22;30830;53.704;10.004;2023-05-18T06:36:58;8.30;99.90
45066;DHT22;30830;53.704;10.004;2023-05-18T06:39:24;8.20;99.90
45066;DHT22;30830;53.704;10.004;2023-05-18T06:41:49;8.20;99.90
45066;DHT22;30830;53.704;10.004;2023-05-18T06:44:16;8.20;99.90
45066;DHT22;30830;53.704;10.004;2023-05-18T06:46:42;8.30;99.90
45066;DHT22;30830;53.704;10.004;2023-05-18T06:49:08;8.30;99.90
45066;DHT22;30830;53.704;10.004;2023-05-18T06:51:33;8.50;99.90
45066;DHT22;30830;53.704;10.004;2023-05-18T06:53:59;8.50;99.90
45066;DHT22;30830;53.704;10.004;2023-05-18T06:56:24;8.60;99.90
45066;DHT22;30830;53.704;10.004;2023-05-18T06:58:50;8.60;99.90
45066;DHT22;30830;53.704;10.004;2023-05-18T07:01:16;8.80;99.90
45066;DHT22;30830;53.704;10.004;2023-05-18T07:03:44;8.90;99.90
45066;DHT22;30830;53.704;10.004;2023-05-18T07:06:10;8.90;99.90
45066;DHT22;30830;53.704;10.004;2023-05-18T07:08:36;8.90;99.90
45066;DHT22;30830;53.704;10.004;2023-05-18T07:11:02;8.90;99.90
45066;DHT22;30830;53.704;10.004;2023-05-18T07:13:28;9.00;99.90
45066;DHT22;30830;53.704;10.004;2023-05-18T07:15:54;9.10;99.90
45066;DHT22;30830;53.704;10.004;2023-05-18T07:18:19;9.10;99.90
45066;DHT22;30830;53.704;10.004;2023-05-18T07:20:45;9.10;99.90
45066;DHT22;30830;53.704;10.004;2023-05-18T07:23:12;9.30;99.90
45066;DHT22;30830;53.704;10.004;2023-05-18T07:25:38;9.20;99.90
45066;DHT22;30830;53.704;10.004;2023-05-18T07:28:07;9.10;99.90
45066;DHT22;30830;53.704;10.004;2023-05-18T07:30:33;9.00;99.90
45066;DHT22;30830;53.704;10.004;2023-05-18T07:32:58;8.90;99.90
45066;DHT22;30830;53.704;10.004;2023-05-18T07:35:24;8.90;99.90
45066;DHT22;30830;53.704;10.004;2023-05-18T07:37:51;8.90;99.90
45066;DHT22;30830;53.704;10.004;2023-05-18T07:40:18;9.10;99.90
45066;DHT22;30830;53.704;10.004;2023-05-18T07:42:44;9.20;99.90
45066;DHT22;30830;53.704;10.004;2023-05-18T07:45:10;9.20;99.90
45066;DHT22;30830;53.704;10.004;2023-05-18T07:47:36;9.20;99.90
45066;DHT22;30830;53.704;10.004;2023-05-18T07:50:01;9.20;99.90
45066;DHT22;30830;53.704;10.004;2023-05-18T07:52:27;9.60;99.90
45066;DHT22;30830;53.704;10.004;2023-05-18T07:54:55;10.10;99.90
45066;DHT22;30830;53.704;10.004;2023-05-18T07:57:21;10.50;98.90
45066;DHT22;30830;53.704;10.004;2023-05-18T07:59:47;11.00;98.80
45066;DHT22;30830;53.704;10.004;2023-05-18T08:02:12;11.50;99.20
45066;DHT22;30830;53.704;10.004;2023-05-18T08:04:40;11.80;96.90
45066;DHT22;30830;53.704;10.004;2023-05-18T08:07:06;11.90;95.20
45066;DHT22;30830;53.704;10.004;2023-05-18T08:09:33;12.00;97.00
45066;DHT22;30830;53.704;10.004;2023-05-18T08:11:59;12.10;96.20
45066;DHT22;30830;53.704;10.004;2023-05-18T08:14:25;12.40;96.90
45066;DHT22;30830;53.704;10.004;2023-05-18T08:16:50;12.50;95.30
45066;DHT22;30830;53.704;10.004;2023-05-18T08:19:16;12.30;94.20
45066;DHT22;30830;53.704;10.004;2023-05-18T08:21:41;12.20;97.00
45066;DHT22;30830;53.704;10.004;2023-05-18T08:24:08;12.00;95.40
45066;DHT22;30830;53.704;10.004;2023-05-18T08:26:34;11.80;93.80
45066;DHT22;30830;53.704;10.004;2023-05-18T08:29:00;11.60;94.40
45066;DHT22;30830;53.704;10.004;2023-05-18T08:31:25;11.40;94.40
45066;DHT22;30830;53.704;10.004;2023-05-18T08:33:51;11.30;95.10
45066;DHT22;30830;53.704;10.004;2023-05-18T08:36:16;11.10;94.80
45066;DHT22;30830;53.704;10.004;2023-05-18T08:38:42;11.50;95.70
45066;DHT22;30830;53.704;10.004;2023-05-18T08:41:22;12.00;96.10
45066;DHT22;30830;53.704;10.004;2023-05-18T08:44:08;12.50;96.70
45066;DHT22;30830;53.704;10.004;2023-05-18T08:46:40;13.10;95.30
45066;DHT22;30830;53.704;10.004;2023-05-18T08:49:08;13.60;94.20
45066;DHT22;30830;53.704;10.004;2023-05-18T08:51:35;13.40;90.60
45066;DHT22;30830;53.704;10.004;2023-05-18T08:54:02;13.20;91.40
45066;DHT22;30830;53.704;10.004;2023-05-18T08:56:31;13.20;91.30
45066;DHT22;30830;53.704;10.004;2023-05-18T08:58:58;13.40;91.70
45066;DHT22;30830;53.704;10.004;2023-05-18T09:01:25;13.50;91.80
45066;DHT22;30830;53.704;10.004;2023-05-18T09:03:55;13.60;92.00
45066;DHT22;30830;53.704;10.004;2023-05-18T09:06:22;13.50;92.90
45066;DHT22;30830;53.704;10.004;2023-05-18T09:08:51;13.50;92.40
45066;DHT22;30830;53.704;10.004;2023-05-18T09:11:17;13.40;92.70
45066;DHT22;30830;53.704;10.004;2023-05-18T09:13:43;13.30;94.70
45066;DHT22;30830;53.704;10.004;2023-05-18T09:16:09;13.30;93.10
45066;DHT22;30830;53.704;10.004;2023-05-18T09:18:35;13.40;92.90
45066;DHT22;30830;53.704;10.004;2023-05-18T09:21:00;13.30;94.50
45066;DHT22;30830;53.704;10.004;2023-05-18T09:23:26;13.30;92.20
45066;DHT22;30830;53.704;10.004;2023-05-18T09:25:52;13.20;95.80
45066;DHT22;30830;53.704;10.004;2023-05-18T09:30:54;13.00;92.40
45066;DHT22;30830;53.704;10.004;2023-05-18T09:33:20;13.10;92.30
45066;DHT22;30830;53.704;10.004;2023-05-18T09:35:46;12.90;91.10
45066;DHT22;30830;53.704;10.004;2023-05-18T09:38:15;13.10;93.00
45066;DHT22;30830;53.704;10.004;2023-05-18T09:40:45;13.30;91.80
45066;DHT22;30830;53.704;10.004;2023-05-18T09:43:10;13.10;91.00
45066;DHT22;30830;53.704;10.004;2023-05-18T09:45:41;13.20;90.70
45066;DHT22;30830;53.704;10.004;2023-05-18T09:48:08;13.10;90.60
45066;DHT22;30830;53.704;10.004;2023-05-18T09:50:34;13.00;90.10
45066;DHT22;30830;53.704;10.004;2023-05-18T09:53:02;12.80;90.30
45066;DHT22;30830;53.704;10.004;2023-05-18T09:55:30;13.00;92.00
45066;DHT22;30830;53.704;10.004;2023-05-18T09:57:56;13.20;94.10
45066;DHT22;30830;53.704;10.004;2023-05-18T10:00:22;12.80;91.00
45066;DHT22;30830;53.704;10.004;2023-05-18T10:02:48;12.90;91.30
45066;DHT22;30830;53.704;10.004;2023-05-18T10:05:27;13.10;92.30
45066;DHT22;30830;53.704;10.004;2023-05-18T10:07:56;13.30;91.80
45066;DHT22;30830;53.704;10.004;2023-05-18T10:10:24;13.40;93.20
45066;DHT22;30830;53.704;10.004;2023-05-18T10:12:51;13.60;92.40
45066;DHT22;30830;53.704;10.004;2023-05-18T10:15:19;13.40;90.40
45066;DHT22;30830;53.704;10.004;2023-05-18T10:17:47;13.20;90.90
45066;DHT22;30830;53.704;10.004;2023-05-18T10:20:17;13.00;90.30
45066;DHT22;30830;53.704;10.004;2023-05-18T10:22:45;12.90;91.10
45066;DHT22;30830;53.704;10.004;2023-05-18T10:25:17;13.00;91.00
45066;DHT22;30830;53.704;10.004;2023-05-18T10:27:43;12.90;91.50
45066;DHT22;30830;53.704;10.004;2023-05-18T10:30:10;13.10;92.80
45066;DHT22;30830;53.704;10.004;2023-05-18T10:32:37;13.20;92.30
45066;DHT22;30830;53.704;10.004;2023-05-18T10:35:04;13.50;92.60
45066;DHT22;30830;53.704;10.004;2023-05-18T10:37:32;13.70;93.20
45066;DHT22;30830;53.704;10.004;2023-05-18T10:39:59;13.60;90.50
45066;DHT22;30830;53.704;10.004;2023-05-18T10:42:25;13.60;90.80
45066;DHT22;30830;53.704;10.004;2023-05-18T10:44:53;13.40;90.00
45066;DHT22;30830;53.704;10.004;2023-05-18T10:47:19;13.30;90.80
45066;DHT22;30830;53.704;10.004;2023-05-18T10:49:48;13.30;91.40
45066;DHT22;30830;53.704;10.004;2023-05-18T10:52:16;13.20;90.30
45066;DHT22;30830;53.704;10.004;2023-05-18T10:54:42;13.00;91.60
45066;DHT22;30830;53.704;10.004;2023-05-18T10:57:12;13.10;92.40
45066;DHT22;30830;53.704;10.004;2023-05-18T10:59:42;13.40;92.30
45066;DHT22;30830;53.704;10.004;2023-05-18T11:02:10;13.40;90.70
45066;DHT22;30830;53.704;10.004;2023-05-18T11:04:38;13.30;90.60
45066;DHT22;30830;53.704;10.004;2023-05-18T11:07:05;13.30;90.80
45066;DHT22;30830;53.704;10.004;2023-05-18T11:09:34;13.20;90.70
45066;DHT22;30830;53.704;10.004;2023-05-18T11:12:00;13.30;91.50
45066;DHT22;30830;53.704;10.004;2023-05-18T11:14:27;13.20;90.10
45066;DHT22;30830;53.704;10.004;2023-05-18T11:16:53;13.20;90.90
45066;DHT22;30830;53.704;10.004;2023-05-18T11:19:23;13.20;91.00
45066;DHT22;30830;53.704;10.004;2023-05-18T11:21:51;13.20;91.00
45066;DHT22;30830;53.704;10.004;2023-05-18T11:24:31;13.40;91.90
45066;DHT22;30830;53.704;10.004;2023-05-18T11:27:22;13.40;90.50
45066;DHT22;30830;53.704;10.004;2023-05-18T11:29:46;13.60;90.40
45066;DHT22;30830;53.704;10.004;2023-05-18T11:32:26;13.70;91.20
45066;DHT22;30830;53.704;10.004;2023-05-18T11:34:54;13.70;90.50
45066;DHT22;30830;53.704;10.004;2023-05-18T11:40:07;13.90;90.60
45066;DHT22;30830;53.704;10.004;2023-05-18T11:42:34;14.10;91.10
45066;DHT22;30830;53.704;10.004;2023-05-18T11:45:06;14.20;91.00
45066;DHT22;30830;53.704;10.004;2023-05-18T11:47:33;14.30;92.30
45066;DHT22;30830;53.704;10.004;2023-05-18T11:50:01;14.40;91.30
45066;DHT22;30830;53.704;10.004;2023-05-18T11:52:27;14.60;90.60
45066;DHT22;30830;53.704;10.004;2023-05-18T11:54:53;14.50;89.90
45066;DHT22;30830;53.704;10.004;2023-05-18T11:57:22;14.60;90.20
45066;DHT22;30830;53.704;10.004;2023-05-18T11:59:53;14.60;90.40
45066;DHT22;30830;53.704;10.004;2023-05-18T12:02:44;14.60;90.80
45066;DHT22;30830;53.704;10.004;2023-05-18T12:05:10;14.70;90.70
45066;DHT22;30830;53.704;10.004;2023-05-18T12:07:36;14.70;86.50
45066;DHT22;30830;53.704;10.004;2023-05-18T12:12:29;14.80;90.30
45066;DHT22;30830;53.704;10.004;2023-05-18T12:14:57;14.80;89.10
45066;DHT22;30830;53.704;10.004;2023-05-18T12:17:45;14.80;87.50
45066;DHT22;30830;53.704;10.004;2023-05-18T12:20:17;14.80;88.40
45066;DHT22;30830;53.704;10.004;2023-05-18T12:22:48;14.70;87.40
45066;DHT22;30830;53.704;10.004;2023-05-18T12:25:14;14.70;87.40
45066;DHT22;30830;53.704;10.004;2023-05-18T12:27:44;14.80;88.90
45066;DHT22;30830;53.704;10.004;2023-05-18T12:30:19;14.90;90.10
45066;DHT22;30830;53.704;10.004;2023-05-18T12:32:53;15.10;87.60
45066;DHT22;30830;53.704;10.004;2023-05-18T12:35:26;15.00;86.70
45066;DHT22;30830;53.704;10.004;2023-05-18T12:37:52;15.00;85.80
45066;DHT22;30830;53.704;10.004;2023-05-18T12:40:23;15.10;87.40
45066;DHT22;30830;53.704;10.004;2023-05-18T12:42:56;15.30;87.20
45066;DHT22;30830;53.704;10.004;2023-05-18T12:45:26;15.40;84.40
45066;DHT22;30830;53.704;10.004;2023-05-18T12:47:52;15.50;83.00
45066;DHT22;30830;53.704;10.004;2023-05-18T12:50:20;15.60;85.80
45066;DHT22;30830;53.704;10.004;2023-05-18T12:52:47;15.60;83.10
45066;DHT22;30830;53.704;10.004;2023-05-18T12:55:20;15.30;81.00
45066;DHT22;30830;53.704;10.004;2023-05-18T12:58:06;15.40;83.90
45066;DHT22;30830;53.704;10.004;2023-05-18T13:00:37;15.60;83.70
45066;DHT22;30830;53.704;10.004;2023-05-18T13:03:17;15.70;81.10
45066;DHT22;30830;53.704;10.004;2023-05-18T13:05:45;15.60;82.90
45066;DHT22;30830;53.704;10.004;2023-05-18T13:08:14;15.80;84.90
45066;DHT22;30830;53.704;10.004;2023-05-18T13:10:46;15.80;82.30
45066;DHT22;30830;53.704;10.004;2023-05-18T13:13:14;15.60;78.90
45066;DHT22;30830;53.704;10.004;2023-05-18T13:15:41;15.60;81.30
45066;DHT22;30830;53.704;10.004;2023-05-18T13:18:11;15.80;80.10
45066;DHT22;30830;53.704;10.004;2023-05-18T13:20:51;15.90;81.60
45066;DHT22;30830;53.704;10.004;2023-05-18T13:23:22;16.00;78.40
45066;DHT22;30830;53.704;10.004;2023-05-18T13:25:48;15.90;79.90
45066;DHT22;30830;53.704;10.004;2023-05-18T13:28:16;16.00;80.40
45066;DHT22;30830;53.704;10.004;2023-05-18T13:30:42;16.10;79.80
45066;DHT22;30830;53.704;10.004;2023-05-18T13:33:08;15.90;80.40
45066;DHT22;30830;53.704;10.004;2023-05-18T13:35:35;16.10;80.00
45066;DHT22;30830;53.704;10.004;2023-05-18T13:38:01;16.00;80.70
45066;DHT22;30830;53.704;10.004;2023-05-18T13:40:26;16.00;81.60
45066;DHT22;30830;53.704;10.004;2023-05-18T13:42:52;16.20;80.50
45066;DHT22;30830;53.704;10.004;2023-05-18T13:45:18;16.20;79.20
45066;DHT22;30830;53.704;10.004;2023-05-18T13:47:46;16.30;79.70
45066;DHT22;30830;53.704;10.004;2023-05-18T13:50:15;16.40;80.40
45066;DHT22;30830;53.704;10.004;2023-05-18T13:52:40;16.30;79.90
45066;DHT22;30830;53.704;10.004;2023-05-18T13:55:06;16.10;81.00
45066;DHT22;30830;53.704;10.004;2023-05-18T13:57:32;16.30;82.20
45066;DHT22;30830;53.704;10.004;2023-05-18T13:59:58;16.30;80.60
45066;DHT22;30830;53.704;10.004;2023-05-18T14:02:27;16.10;80.90
45066;DHT22;30830;53.704;10.004;2023-05-18T14:04:52;16.30;82.40
45066;DHT22;30830;53.704;10.004;2023-05-18T14:07:18;16.40;79.90
45066;DHT22;30830;53.704;10.004;2023-05-18T14:09:44;16.40;80.10
45066;DHT22;30830;53.704;10.004;2023-05-18T14:12:09;16.30;81.10
45066;DHT22;30830;53.704;10.004;2023-05-18T14:14:36;16.40;80.00
45066;DHT22;30830;53.704;10.004;2023-05-18T14:17:02;16.30;82.50
45066;DHT22;30830;53.704;10.004;2023-05-18T14:19:27;16.40;81.50
45066;DHT22;30830;53.704;10.004;2023-05-18T14:21:53;16.60;79.70
45066;DHT22;30830;53.704;10.004;2023-05-18T14:24:19;16.60;79.20
45066;DHT22;30830;53.704;10.004;2023-05-18T14:26:44;16.70;80.10
45066;DHT22;30830;53.704;10.004;2023-05-18T14:29:10;16.80;80.40
45066;DHT22;30830;53.704;10.004;2023-05-18T14:31:35;16.70;79.70
45066;DHT22;30830;53.704;10.004;2023-05-18T14:34:01;16.80;78.60
45066;DHT22;30830;53.704;10.004;2023-05-18T14:36:26;16.90;79.50
45066;DHT22;30830;53.704;10.004;2023-05-18T14:38:52;16.80;79.70
45066;DHT22;30830;53.704;10.004;2023-05-18T14:41:18;16.80;80.90
45066;DHT22;30830;53.704;10.004;2023-05-18T14:43:44;16.80;79.30
45066;DHT22;30830;53.704;10.004;2023-05-18T14:46:11;16.90;80.50
45066;DHT22;30830;53.704;10.004;2023-05-18T14:48:37;17.10;82.60
45066;DHT22;30830;53.704;10.004;2023-05-18T14:51:02;17.00;79.00
45066;DHT22;30830;53.704;10.004;2023-05-18T14:53:28;16.80;80.30
45066;DHT22;30830;53.704;10.004;2023-05-18T14:55:53;16.70;81.90
45066;DHT22;30830;53.704;10.004;2023-05-18T14:58:19;16.80;79.10
45066;DHT22;30830;53.704;10.004;2023-05-18T15:00:45;16.80;79.80
45066;DHT22;30830;53.704;10.004;2023-05-18T15:03:10;17.00;80.40
45066;DHT22;30830;53.704;10.004;2023-05-18T15:05:36;16.90;79.70
45066;DHT22;30830;53.704;10.004;2023-05-18T15:08:03;16.80;79.70
45066;DHT22;30830;53.704;10.004;2023-05-18T15:10:28;16.40;79.10
45066;DHT22;30830;53.704;10.004;2023-05-18T15:12:54;16.50;81.60
45066;DHT22;30830;53.704;10.004;2023-05-18T15:15:19;16.30;80.50
45066;DHT22;30830;53.704;10.004;2023-05-18T15:17:45;16.20;79.90
45066;DHT22;30830;53.704;10.004;2023-05-18T15:20:11;16.20;79.70
45066;DHT22;30830;53.704;10.004;2023-05-18T15:22:36;16.30;81.30
45066;DHT22;30830;53.704;10.004;2023-05-18T15:25:06;16.50;81.60
45066;DHT22;30830;53.704;10.004;2023-05-18T15:27:32;16.60;79.90
45066;DHT22;30830;53.704;10.004;2023-05-18T15:29:58;16.70;78.90
45066;DHT22;30830;53.704;10.004;2023-05-18T15:32:24;16.60;79.00
45066;DHT22;30830;53.704;10.004;2023-05-18T15:34:50;16.50;80.30
45066;DHT22;30830;53.704;10.004;2023-05-18T15:37:17;16.50;80.40
45066;DHT22;30830;53.704;10.004;2023-05-18T15:39:43;16.50;80.30
45066;DHT22;30830;53.704;10.004;2023-05-18T15:42:08;16.50;78.90
45066;DHT22;30830;53.704;10.004;2023-05-18T15:44:34;16.40;80.70
45066;DHT22;30830;53.704;10.004;2023-05-18T15:47:00;16.30;79.70
45066;DHT22;30830;53.704;10.004;2023-05-18T15:49:25;16.00;79.20